createdAt,value
2023-05-19T00:01:49.375Z,2.50
2023-05-19T00:04:17.898Z,2.55
2023-05-19T00:06:50.885Z,2.60
2023-05-19T00:09:19.456Z,3.10
2023-05-19T00:11:47.267Z,2.85
2023-05-19T00:14:15.226Z,3.45
2023-05-19T00:16:43.805Z,2.88
2023-05-19T00:19:11.659Z,2.07
2023-05-19T00:21:39.570Z,2.83
2023-05-19T00:24:08.993Z,2.40
2023-05-19T00:26:37.185Z,2.83
2023-05-19T00:29:04.787Z,2.92
2023-05-19T00:31:34.553Z,2.47
2023-05-19T00:34:02.907Z,2.92
2023-05-19T00:36:31.191Z,2.75
2023-05-19T00:38:59.386Z,2.33
2023-05-19T00:41:28.926Z,2.03
2023-05-19T00:43:56.517Z,2.03
2023-05-19T00:46:24.989Z,3.13
2023-05-19T00:48:53.080Z,2.47
2023-05-19T00:51:21.199Z,2.80
2023-05-19T00:53:52.146Z,3.00
2023-05-19T00:56:24.339Z,2.40
2023-05-19T00:58:54.314Z,2.85
2023-05-19T01:01:22.780Z,2.17
2023-05-19T01:03:51.397Z,3.13
2023-05-19T01:06:21.103Z,2.08
2023-05-19T01:08:48.863Z,2.77
2023-05-19T01:11:16.561Z,2.40
2023-05-19T01:13:44.960Z,2.53
2023-05-19T01:16:18.004Z,2.85
2023-05-19T01:18:49.005Z,2.40
2023-05-19T01:21:27.139Z,3.00
2023-05-19T01:23:59.106Z,2.72
2023-05-19T01:26:41.635Z,2.72
2023-05-19T01:29:17.262Z,2.10
2023-05-19T01:31:48.985Z,2.53
2023-05-19T01:34:18.051Z,2.63
2023-05-19T01:36:49.197Z,2.50
2023-05-19T01:39:17.286Z,3.13
2023-05-19T01:41:45.894Z,2.95
2023-05-19T01:44:13.585Z,2.67
2023-05-19T01:46:42.315Z,2.80
2023-05-19T01:49:12.280Z,2.97
2023-05-19T01:51:40.807Z,2.97
2023-05-19T01:54:09.638Z,3.90
2023-05-19T01:56:42.792Z,2.97
2023-05-19T01:59:14.525Z,2.83
2023-05-19T02:01:47.877Z,3.08
2023-05-19T02:04:21.517Z,2.80
2023-05-19T02:06:55.268Z,3.38
2023-05-19T02:09:24.626Z,3.17
2023-05-19T02:11:56.140Z,2.90
2023-05-19T02:14:26.446Z,3.30
2023-05-19T02:16:54.918Z,2.65
2023-05-19T02:19:25.756Z,3.03
2023-05-19T02:21:53.366Z,2.63
2023-05-19T02:24:22.780Z,3.07
2023-05-19T02:26:53.599Z,3.20
2023-05-19T02:29:21.296Z,3.80
2023-05-19T02:31:49.510Z,2.97
2023-05-19T02:34:17.647Z,3.28
2023-05-19T02:36:49.917Z,3.60
2023-05-19T02:39:21.128Z,3.25
2023-05-19T02:41:48.674Z,3.63
2023-05-19T02:44:16.183Z,3.00
2023-05-19T02:46:45.011Z,3.53
2023-05-19T02:49:12.608Z,3.67
2023-05-19T02:51:40.137Z,3.13
2023-05-19T02:54:10.155Z,3.15
2023-05-19T02:56:37.755Z,2.70
2023-05-19T02:59:06.176Z,3.25
2023-05-19T03:01:35.037Z,3.20
2023-05-19T03:04:02.683Z,3.10
2023-05-19T03:06:32.412Z,4.47
2023-05-19T03:09:01.505Z,3.65
2023-05-19T03:11:30.914Z,3.90
2023-05-19T03:13:58.573Z,2.97
2023-05-19T03:16:28.220Z,3.35
2023-05-19T03:18:56.807Z,4.13
2023-05-19T03:21:24.610Z,3.28
2023-05-19T03:23:53.320Z,3.70
2023-05-19T03:26:23.412Z,3.50
2023-05-19T03:28:52.433Z,3.40
2023-05-19T03:31:21.226Z,3.40
2023-05-19T03:33:48.866Z,3.75
2023-05-19T03:36:17.481Z,4.13
2023-05-19T03:38:46.153Z,3.63
2023-05-19T03:41:14.288Z,3.30
2023-05-19T03:43:41.908Z,3.67
2023-05-19T03:46:12.063Z,3.72
2023-05-19T03:48:39.689Z,3.47
2023-05-19T03:51:07.225Z,3.47
2023-05-19T03:53:36.146Z,3.83
2023-05-19T03:56:03.712Z,3.15
2023-05-19T03:58:31.279Z,4.03
2023-05-19T04:00:59.593Z,3.55
2023-05-19T04:03:28.975Z,3.57
2023-05-19T04:05:56.631Z,3.80
2023-05-19T04:08:25.007Z,3.10
2023-05-19T04:10:52.566Z,2.75
2023-05-19T04:13:20.210Z,3.28
2023-05-19T04:15:48.559Z,3.50
2023-05-19T04:18:16.179Z,3.30
2023-05-19T04:20:45.114Z,2.67
2023-05-19T04:23:14.199Z,2.95
2023-05-19T04:25:42.169Z,3.38
2023-05-19T04:28:10.060Z,3.33
2023-05-19T04:30:39.166Z,3.67
2023-05-19T04:33:07.653Z,3.95
2023-05-19T04:35:35.394Z,3.25
2023-05-19T04:38:05.136Z,4.03
2023-05-19T04:40:32.934Z,3.90
2023-05-19T04:43:02.252Z,3.70
2023-05-19T04:45:33.312Z,3.47
2023-05-19T04:48:02.028Z,3.80
2023-05-19T04:50:31.144Z,4.05
2023-05-19T04:52:59.895Z,3.97
2023-05-19T04:55:28.827Z,4.10
2023-05-19T04:57:56.449Z,3.78
2023-05-19T05:00:25.460Z,3.97
2023-05-19T05:02:53.056Z,3.25
2023-05-19T05:05:21.097Z,3.77
2023-05-19T05:07:50.001Z,3.55
2023-05-19T05:10:17.649Z,4.03
2023-05-19T05:12:47.399Z,3.63
2023-05-19T05:15:15.604Z,3.60
2023-05-19T05:17:49.231Z,3.50
2023-05-19T05:20:18.352Z,3.17
2023-05-19T05:22:46.819Z,3.05
2023-05-19T05:25:15.162Z,3.00
2023-05-19T05:27:43.804Z,3.70
2023-05-19T05:30:13.161Z,3.40
2023-05-19T05:32:40.918Z,2.72
2023-05-19T05:35:09.929Z,3.22
2023-05-19T05:37:37.461Z,3.05
2023-05-19T05:40:10.261Z,3.15
2023-05-19T05:42:39.540Z,3.63
2023-05-19T05:45:08.026Z,2.70
2023-05-19T05:47:38.435Z,2.97
2023-05-19T05:50:10.379Z,3.20
2023-05-19T05:52:38.519Z,3.22
2023-05-19T05:55:06.912Z,3.70
2023-05-19T05:57:36.687Z,3.10
2023-05-19T06:00:07.270Z,2.92
2023-05-19T06:02:34.924Z,3.30
2023-05-19T06:05:04.838Z,3.58
2023-05-19T06:07:32.474Z,2.83
2023-05-19T06:10:00.454Z,3.47
2023-05-19T06:12:28.977Z,3.08
2023-05-19T06:14:56.689Z,3.30
2023-05-19T06:17:24.482Z,3.40
2023-05-19T06:19:52.852Z,3.17
2023-05-19T06:22:23.265Z,3.22
2023-05-19T06:24:51.058Z,2.85
2023-05-19T06:27:20.017Z,3.67
2023-05-19T06:29:48.429Z,3.22
2023-05-19T06:32:16.011Z,3.30
2023-05-19T06:34:44.274Z,2.92
2023-05-19T06:37:11.857Z,3.13
2023-05-19T06:39:40.815Z,3.10
2023-05-19T06:42:09.619Z,3.40
2023-05-19T06:44:37.154Z,4.17
2023-05-19T06:47:05.112Z,3.13
2023-05-19T06:49:33.506Z,3.08
2023-05-19T06:52:01.322Z,3.08
2023-05-19T06:54:29.000Z,4.03
2023-05-19T06:56:58.207Z,3.50
2023-05-19T06:59:25.960Z,2.95
2023-05-19T07:01:53.559Z,3.08
2023-05-19T07:04:22.337Z,3.05
2023-05-19T07:06:50.289Z,2.92
2023-05-19T07:09:18.355Z,3.37
2023-05-19T07:11:47.545Z,3.63
2023-05-19T07:14:16.495Z,3.80
2023-05-19T07:16:44.064Z,3.55
2023-05-19T07:19:12.595Z,3.22
2023-05-19T07:21:40.176Z,3.43
2023-05-19T07:24:08.069Z,3.50
2023-05-19T07:26:36.071Z,3.05
2023-05-19T07:29:03.767Z,3.30
2023-05-19T07:31:32.888Z,3.28
2023-05-19T07:34:01.360Z,3.10
2023-05-19T07:36:28.931Z,3.17
2023-05-19T07:38:59.552Z,3.75
2023-05-19T07:41:28.701Z,3.42
2023-05-19T07:43:56.348Z,3.20
2023-05-19T07:46:23.997Z,3.80
2023-05-19T07:48:53.873Z,3.10
2023-05-19T07:51:21.403Z,3.50
2023-05-19T07:53:49.058Z,3.47
2023-05-19T07:56:17.367Z,3.05
2023-05-19T07:58:44.921Z,3.57
2023-05-19T08:01:12.569Z,2.85
2023-05-19T08:03:40.622Z,2.85
2023-05-19T08:06:09.639Z,3.13
2023-05-19T08:08:37.330Z,3.28
2023-05-19T08:11:07.256Z,3.07
2023-05-19T08:13:35.365Z,2.85
2023-05-19T08:16:03.092Z,3.25
2023-05-19T08:18:31.427Z,2.92
2023-05-19T08:20:59.446Z,2.95
2023-05-19T08:23:28.432Z,3.77
2023-05-19T08:25:58.097Z,3.15
2023-05-19T08:28:25.618Z,4.20
2023-05-19T08:30:53.326Z,3.08
2023-05-19T08:33:21.806Z,3.85
2023-05-19T08:35:51.409Z,3.60
2023-05-19T08:38:19.039Z,4.20
2023-05-19T08:40:48.879Z,3.75
2023-05-19T08:43:16.453Z,4.22
2023-05-19T08:45:44.552Z,3.83
2023-05-19T08:48:13.488Z,4.10
2023-05-19T08:50:43.609Z,3.95
2023-05-19T08:53:25.040Z,4.32
2023-05-19T08:56:04.034Z,3.78
2023-05-19T08:58:32.696Z,4.47
2023-05-19T09:01:00.974Z,3.90
2023-05-19T09:03:29.119Z,4.53
2023-05-19T09:05:57.161Z,4.20
2023-05-19T09:08:24.776Z,4.50
2023-05-19T09:10:52.985Z,4.40
2023-05-19T09:13:22.264Z,4.10
2023-05-19T09:15:51.447Z,3.72
2023-05-19T09:18:19.158Z,4.70
2023-05-19T09:20:48.031Z,4.10
2023-05-19T09:23:16.385Z,3.88
2023-05-19T09:25:48.820Z,4.03
2023-05-19T09:28:16.809Z,4.70
2023-05-19T09:30:46.033Z,3.90
2023-05-19T09:33:18.300Z,3.80
2023-05-19T09:35:48.399Z,3.92
2023-05-19T09:38:18.910Z,3.90
2023-05-19T09:40:49.839Z,3.90
2023-05-19T09:43:17.614Z,3.90
2023-05-19T09:45:47.773Z,4.43
2023-05-19T09:48:15.607Z,4.57
2023-05-19T09:50:46.063Z,4.10
2023-05-19T09:53:20.744Z,4.30
2023-05-19T09:55:49.918Z,4.43
2023-05-19T09:58:17.529Z,3.83
2023-05-19T10:00:47.906Z,4.18
2023-05-19T10:03:17.675Z,3.80
2023-05-19T10:05:46.057Z,3.80
2023-05-19T10:08:14.183Z,3.78
2023-05-19T10:10:42.365Z,4.43
2023-05-19T10:13:10.233Z,4.38
2023-05-19T10:15:53.707Z,3.57
2023-05-19T10:18:27.648Z,4.05
2023-05-19T10:20:55.941Z,3.65
2023-05-19T10:23:24.024Z,3.00
2023-05-19T10:25:52.425Z,3.67
2023-05-19T10:28:25.641Z,4.00
2023-05-19T10:30:55.637Z,3.88
2023-05-19T10:33:29.141Z,4.03
2023-05-19T10:36:09.059Z,2.83
2023-05-19T10:38:43.567Z,4.18
2023-05-19T10:41:13.775Z,3.73
2023-05-19T10:43:54.678Z,4.00
2023-05-19T10:46:24.426Z,4.10
2023-05-19T10:48:52.475Z,4.00
2023-05-19T10:51:22.194Z,4.40
2023-05-19T10:53:50.924Z,4.47
2023-05-19T10:56:35.078Z,4.13
2023-05-19T10:59:03.768Z,4.55
2023-05-19T11:01:32.388Z,4.13
2023-05-19T11:04:05.785Z,3.58
2023-05-19T11:06:37.926Z,4.23
2023-05-19T11:09:12.476Z,4.45
2023-05-19T11:11:48.124Z,4.93
2023-05-19T11:14:16.604Z,3.83
2023-05-19T11:16:47.528Z,4.90
2023-05-19T11:19:23.521Z,4.77
2023-05-19T11:21:55.132Z,3.88
2023-05-19T11:24:36.622Z,4.70
2023-05-19T11:27:25.399Z,4.28
2023-05-19T11:29:54.359Z,4.90
2023-05-19T11:32:22.586Z,4.60
2023-05-19T11:34:50.539Z,4.68
2023-05-19T11:37:19.931Z,5.45
2023-05-19T11:39:50.405Z,5.15
2023-05-19T11:42:18.042Z,5.35
2023-05-19T11:44:47.408Z,6.03
2023-05-19T11:47:15.221Z,6.28
2023-05-19T11:49:44.277Z,4.97
2023-05-19T11:52:12.539Z,5.93
2023-05-19T11:54:42.211Z,6.10
2023-05-19T11:57:09.981Z,5.27
2023-05-19T11:59:39.437Z,4.95
2023-05-19T12:02:16.802Z,4.13
2023-05-19T12:04:46.789Z,4.80
2023-05-19T12:07:17.443Z,5.03
2023-05-19T12:09:47.831Z,5.50
2023-05-19T12:12:17.049Z,4.78
2023-05-19T12:14:44.759Z,3.33
2023-05-19T12:17:13.489Z,3.25
2023-05-19T12:19:41.491Z,4.60
2023-05-19T12:22:09.187Z,4.10
2023-05-19T12:24:37.622Z,4.00
2023-05-19T12:27:18.367Z,5.30
2023-05-19T12:29:50.315Z,3.63
2023-05-19T12:32:18.472Z,4.50
2023-05-19T12:34:46.925Z,3.80
2023-05-19T12:37:14.732Z,4.18
2023-05-19T12:39:43.130Z,3.67
2023-05-19T12:42:14.906Z,3.00
2023-05-19T12:44:47.192Z,4.55
2023-05-19T12:47:16.655Z,4.57
2023-05-19T12:49:57.449Z,3.95
2023-05-19T12:52:26.242Z,4.95
2023-05-19T12:54:59.867Z,4.70
2023-05-19T12:57:32.121Z,4.53
2023-05-19T13:00:06.688Z,4.30
2023-05-19T13:02:35.889Z,4.20
2023-05-19T13:05:03.819Z,5.25
2023-05-19T13:07:31.398Z,4.93
2023-05-19T13:10:00.092Z,4.15
2023-05-19T13:12:29.128Z,4.67
2023-05-19T13:14:56.829Z,5.50
2023-05-19T13:17:25.130Z,5.43
2023-05-19T13:19:52.981Z,6.13
2023-05-19T13:22:20.719Z,6.60
2023-05-19T13:24:48.655Z,5.70
2023-05-19T13:27:16.365Z,6.50
2023-05-19T13:29:47.240Z,5.97
2023-05-19T13:32:15.546Z,5.78
2023-05-19T13:34:43.109Z,6.43
2023-05-19T13:37:11.511Z,7.20
2023-05-19T13:39:40.684Z,5.97
2023-05-19T13:42:08.217Z,6.00
2023-05-19T13:44:35.850Z,5.95
2023-05-19T13:47:06.065Z,6.30
2023-05-19T13:49:33.630Z,4.30
2023-05-19T13:52:01.293Z,3.95
2023-05-19T13:54:30.559Z,5.00
2023-05-19T13:56:58.307Z,4.30
2023-05-19T13:59:28.041Z,4.13
2023-05-19T14:01:57.083Z,3.70
2023-05-19T14:04:26.101Z,3.05
2023-05-19T14:06:53.760Z,3.00
2023-05-19T14:09:22.436Z,3.83
2023-05-19T14:11:49.954Z,3.78
2023-05-19T14:14:17.533Z,3.13
2023-05-19T14:16:46.077Z,4.25
2023-05-19T14:19:14.615Z,4.13
2023-05-19T14:21:43.541Z,3.83
2023-05-19T14:24:11.828Z,3.92
2023-05-19T14:26:39.387Z,3.80
2023-05-19T14:29:06.948Z,4.65
2023-05-19T14:31:35.970Z,4.45
2023-05-19T14:34:03.596Z,4.57
2023-05-19T14:36:33.150Z,4.93
2023-05-19T14:39:03.518Z,4.30
2023-05-19T14:41:31.158Z,4.18
2023-05-19T14:43:59.327Z,4.70
2023-05-19T14:46:27.389Z,4.70
2023-05-19T14:48:58.420Z,4.57
2023-05-19T14:51:26.138Z,4.53
2023-05-19T14:53:53.806Z,3.92
2023-05-19T14:56:23.226Z,3.28
2023-05-19T14:58:50.872Z,3.42
2023-05-19T15:01:18.626Z,3.13
2023-05-19T15:03:46.276Z,3.37
2023-05-19T15:06:14.591Z,3.22
2023-05-19T15:08:42.366Z,3.90
2023-05-19T15:11:10.038Z,3.42
2023-05-19T15:13:39.112Z,3.85
2023-05-19T15:16:17.428Z,3.43
2023-05-19T15:18:45.965Z,3.70
2023-05-19T15:21:14.075Z,3.40
2023-05-19T15:23:42.200Z,2.95
2023-05-19T15:26:09.947Z,3.60
2023-05-19T15:28:39.514Z,3.40
2023-05-19T15:31:07.153Z,3.13
2023-05-19T15:33:35.414Z,3.22
2023-05-19T15:36:03.127Z,3.42
2023-05-19T15:38:30.729Z,3.38
2023-05-19T15:40:58.702Z,3.47
2023-05-19T15:43:26.447Z,4.03
2023-05-19T15:45:56.152Z,3.90
2023-05-19T15:48:29.508Z,3.67
2023-05-19T15:50:58.265Z,3.78
2023-05-19T15:53:26.607Z,3.30
2023-05-19T15:55:54.767Z,4.18
2023-05-19T15:58:25.118Z,4.40
2023-05-19T16:00:52.958Z,4.25
2023-05-19T16:03:23.307Z,3.80
2023-05-19T16:05:51.368Z,3.30
2023-05-19T16:08:19.208Z,3.25
2023-05-19T16:10:47.548Z,3.50
2023-05-19T16:13:15.224Z,3.22
2023-05-19T16:15:43.364Z,3.15
2023-05-19T16:18:12.202Z,2.90
2023-05-19T16:20:41.161Z,2.95
2023-05-19T16:23:08.862Z,2.95
2023-05-19T16:25:38.382Z,3.28
2023-05-19T16:28:06.256Z,3.30
2023-05-19T16:30:34.138Z,3.47
2023-05-19T16:33:02.426Z,3.35
2023-05-19T16:35:30.108Z,3.67
2023-05-19T16:37:59.693Z,3.63
2023-05-19T16:40:30.721Z,4.88
2023-05-19T16:42:58.875Z,4.37
2023-05-19T16:45:27.200Z,4.20
2023-05-19T16:47:55.006Z,4.60
2023-05-19T16:50:22.875Z,4.70
2023-05-19T16:52:50.420Z,4.20
2023-05-19T16:55:20.805Z,4.30
2023-05-19T16:57:48.533Z,3.45
2023-05-19T17:00:17.054Z,4.63
2023-05-19T17:02:44.983Z,3.67
2023-05-19T17:05:13.455Z,3.92
2023-05-19T17:07:41.078Z,3.80
2023-05-19T17:10:09.421Z,3.63
2023-05-19T17:12:38.905Z,4.13
2023-05-19T17:15:07.739Z,3.63
2023-05-19T17:17:36.128Z,3.05
2023-05-19T17:20:07.906Z,3.00
2023-05-19T17:22:36.159Z,3.75
2023-05-19T17:25:04.028Z,3.30
2023-05-19T17:27:31.690Z,2.58
2023-05-19T17:30:00.936Z,3.38
2023-05-19T17:32:30.911Z,2.73
2023-05-19T17:34:59.075Z,3.10
2023-05-19T17:37:27.310Z,3.28
2023-05-19T17:39:54.985Z,2.97
2023-05-19T17:42:22.656Z,3.20
2023-05-19T17:44:50.807Z,2.90
2023-05-19T17:47:19.722Z,3.00
2023-05-19T17:49:48.730Z,3.15
2023-05-19T17:52:20.370Z,3.20
2023-05-19T17:54:48.709Z,3.45
2023-05-19T17:57:17.538Z,3.03
2023-05-19T17:59:46.804Z,3.17
2023-05-19T18:02:15.183Z,3.13
2023-05-19T18:04:44.953Z,3.17
2023-05-19T18:07:12.842Z,3.67
2023-05-19T18:09:44.702Z,3.77
2023-05-19T18:12:14.657Z,3.63
2023-05-19T18:14:42.219Z,3.67
2023-05-19T18:17:09.818Z,3.53
2023-05-19T18:19:38.263Z,3.33
2023-05-19T18:22:07.292Z,3.27
2023-05-19T18:24:34.856Z,3.53
2023-05-19T18:27:03.915Z,3.05
2023-05-19T18:29:31.446Z,3.10
2023-05-19T18:31:59.044Z,3.25
2023-05-19T18:34:28.292Z,3.17
2023-05-19T18:36:55.993Z,3.20
2023-05-19T18:39:26.591Z,3.55
2023-05-19T18:41:56.222Z,3.92
2023-05-19T18:44:23.728Z,3.80
2023-05-19T18:46:55.009Z,4.33
2023-05-19T18:49:25.564Z,4.30
2023-05-19T18:51:53.140Z,4.22
2023-05-19T18:54:21.825Z,3.55
2023-05-19T18:56:52.031Z,3.95
2023-05-19T18:59:19.592Z,3.87
2023-05-19T19:01:47.764Z,4.20
2023-05-19T19:04:17.385Z,4.10
2023-05-19T19:06:45.638Z,4.32
2023-05-19T19:09:13.192Z,4.60
2023-05-19T19:11:41.746Z,4.13
2023-05-19T19:16:48.609Z,5.25
2023-05-19T19:19:16.370Z,4.32
2023-05-19T19:21:44.190Z,4.60
2023-05-19T19:24:12.048Z,5.00
2023-05-19T19:26:41.518Z,4.50
2023-05-19T19:29:09.560Z,4.72
2023-05-19T19:31:41.288Z,4.57
2023-05-19T19:34:11.208Z,5.10
2023-05-19T19:36:38.907Z,4.70
2023-05-19T19:39:07.579Z,4.68
2023-05-19T19:41:35.127Z,4.85
2023-05-19T19:44:02.941Z,4.88
2023-05-19T19:46:31.820Z,4.95
2023-05-19T19:49:00.320Z,4.90
2023-05-19T19:51:29.902Z,4.93
2023-05-19T19:53:58.583Z,5.05
2023-05-19T19:56:27.499Z,5.47
2023-05-19T19:58:56.828Z,6.00
2023-05-19T20:01:28.648Z,5.40
2023-05-19T20:03:56.927Z,5.50
2023-05-19T20:06:24.632Z,5.07
2023-05-19T20:08:54.157Z,5.65
2023-05-19T20:11:24.183Z,5.97
2023-05-19T20:13:52.358Z,5.53
2023-05-19T20:16:25.149Z,5.40
2023-05-19T20:18:53.527Z,5.45
2023-05-19T20:21:22.865Z,5.07
2023-05-19T20:23:51.108Z,5.40
2023-05-19T20:26:23.006Z,4.70
2023-05-19T20:28:51.141Z,5.00
2023-05-19T20:31:18.818Z,5.97
2023-05-19T20:33:47.698Z,5.05
2023-05-19T20:36:15.553Z,5.88
2023-05-19T20:38:43.081Z,5.07
2023-05-19T20:41:11.326Z,4.90
2023-05-19T20:43:40.480Z,4.80
2023-05-19T20:46:08.072Z,4.63
2023-05-19T20:48:36.180Z,4.60
2023-05-19T20:51:03.896Z,5.87
2023-05-19T20:53:31.663Z,5.32
2023-05-19T20:55:59.922Z,4.85
2023-05-19T20:58:31.639Z,5.20
2023-05-19T21:01:02.323Z,4.25
2023-05-19T21:03:30.608Z,5.67
2023-05-19T21:05:58.261Z,5.05
2023-05-19T21:08:26.883Z,5.97
2023-05-19T21:10:54.493Z,6.03
2023-05-19T21:13:22.796Z,5.28
2023-05-19T21:15:51.231Z,5.70
2023-05-19T21:18:20.363Z,4.90
2023-05-19T21:20:53.318Z,5.50
2023-05-19T21:23:20.840Z,6.13
2023-05-19T21:25:48.402Z,7.18
2023-05-19T21:28:16.541Z,6.07
2023-05-19T21:30:48.054Z,5.70
2023-05-19T21:33:15.907Z,5.63
2023-05-19T21:35:45.950Z,4.60
2023-05-19T21:38:23.365Z,4.68
2023-05-19T21:40:52.251Z,4.63
2023-05-19T21:43:21.353Z,4.50
2023-05-19T21:45:49.885Z,4.97
2023-05-19T21:48:18.899Z,4.43
2023-05-19T21:50:52.634Z,4.60
2023-05-19T21:53:21.581Z,4.70
2023-05-19T21:55:49.408Z,4.50
2023-05-19T21:58:17.129Z,4.45
2023-05-19T22:00:50.605Z,4.40
2023-05-19T22:03:18.488Z,4.25
2023-05-19T22:05:51.294Z,3.93
2023-05-19T22:08:19.399Z,4.03
2023-05-19T22:10:49.778Z,4.70
2023-05-19T22:13:17.740Z,4.03
2023-05-19T22:15:46.248Z,4.53
2023-05-19T22:18:14.748Z,4.03
2023-05-19T22:20:43.317Z,3.92
2023-05-19T22:23:12.888Z,3.92
2023-05-19T22:25:40.973Z,4.65
2023-05-19T22:28:09.729Z,4.22
2023-05-19T22:30:40.699Z,4.10
2023-05-19T22:33:09.774Z,4.70
2023-05-19T22:35:37.915Z,4.10
2023-05-19T22:38:05.712Z,4.57
2023-05-19T22:40:36.243Z,4.13
2023-05-19T22:43:04.249Z,4.50
2023-05-19T22:45:32.305Z,4.15
2023-05-19T22:48:00.165Z,4.00
2023-05-19T22:50:28.633Z,4.90
2023-05-19T22:52:56.251Z,4.70
2023-05-19T22:55:25.140Z,4.00
2023-05-19T22:57:55.039Z,4.15
2023-05-19T23:00:22.745Z,4.28
2023-05-19T23:02:51.433Z,4.43
2023-05-19T23:05:20.178Z,4.45
2023-05-19T23:07:47.929Z,4.77
2023-05-19T23:10:15.676Z,4.28
2023-05-19T23:12:44.155Z,4.32
2023-05-19T23:15:13.313Z,4.18
2023-05-19T23:17:41.626Z,4.55
2023-05-19T23:20:10.280Z,4.60
2023-05-19T23:22:37.822Z,4.40
2023-05-19T23:25:07.742Z,4.30
2023-05-19T23:27:36.711Z,4.55
2023-05-19T23:30:04.850Z,4.20
2023-05-19T23:32:34.425Z,4.17
2023-05-19T23:35:10.494Z,4.47
2023-05-19T23:37:38.654Z,3.78
2023-05-19T23:40:06.930Z,4.13
2023-05-19T23:42:36.620Z,5.18
2023-05-19T23:45:04.401Z,4.43
2023-05-19T23:47:35.336Z,3.28
2023-05-19T23:50:04.006Z,4.05
2023-05-19T23:52:32.674Z,4.10
2023-05-19T23:55:00.400Z,4.15
2023-05-19T23:57:29.003Z,4.77
2023-05-19T23:59:57.120Z,3.35
